createdAt,value
2019-05-09T00:00:33.610Z,97122.00
2019-05-09T00:03:03.313Z,97112.00
2019-05-09T00:05:29.776Z,97120.00
2019-05-09T00:07:56.900Z,97133.00
2019-05-09T00:10:37.784Z,97131.00
2019-05-09T00:12:54.034Z,97137.00
2019-05-09T00:15:24.226Z,97147.00
2019-05-09T00:17:53.297Z,97153.00
2019-05-09T00:20:25.459Z,97146.00
2019-05-09T00:22:53.921Z,97147.00
2019-05-09T00:25:23.498Z,97151.00
2019-05-09T00:27:50.149Z,97165.00
2019-05-09T00:30:19.044Z,97168.00
2019-05-09T00:32:47.901Z,97171.00
2019-05-09T00:35:16.745Z,97183.00
2019-05-09T00:38:00.906Z,97183.00
2019-05-09T00:40:27.965Z,97181.00
2019-05-09T00:42:55.019Z,97180.00
2019-05-09T00:45:43.782Z,97178.00
2019-05-09T00:48:14.078Z,97176.00
2019-05-09T00:50:43.605Z,97185.00
2019-05-09T00:53:10.439Z,97186.00
2019-05-09T00:55:37.519Z,97195.00
2019-05-09T00:58:04.615Z,97204.00
2019-05-09T01:00:33.326Z,97209.00
2019-05-09T01:03:00.861Z,97209.00
2019-05-09T01:05:27.924Z,97220.00
2019-05-09T01:07:55.015Z,97227.00
2019-05-09T01:10:23.717Z,97229.00
2019-05-09T01:12:51.099Z,97237.00
2019-05-09T01:15:19.062Z,97231.00
2019-05-09T01:17:46.199Z,97236.00
2019-05-09T01:20:14.716Z,97243.00
2019-05-09T01:22:43.621Z,97244.00
2019-05-09T01:25:12.863Z,97257.00
2019-05-09T01:27:39.874Z,97268.00
2019-05-09T01:30:07.544Z,97269.00
2019-05-09T01:32:51.150Z,97280.00
2019-05-09T01:35:18.234Z,97279.00
2019-05-09T01:37:45.319Z,97276.00
2019-05-09T01:40:13.305Z,97286.00
2019-05-09T01:42:40.729Z,97283.00
2019-05-09T01:45:07.909Z,97289.00
2019-05-09T01:47:35.009Z,97295.00
2019-05-09T01:50:03.934Z,97292.00
2019-05-09T01:52:31.050Z,97285.00
2019-05-09T01:54:58.119Z,97294.00
2019-05-09T01:57:25.189Z,97297.00
2019-05-09T01:59:53.216Z,97299.00
2019-05-09T02:02:20.406Z,97307.00
2019-05-09T02:04:47.964Z,97308.00
2019-05-09T02:07:15.006Z,97306.00
2019-05-09T02:09:43.407Z,97305.00
2019-05-09T02:12:10.629Z,97297.00
2019-05-09T02:14:56.419Z,97305.00
2019-05-09T02:17:33.353Z,97302.00
2019-05-09T02:20:00.035Z,97302.00
2019-05-09T02:22:34.509Z,97302.00
2019-05-09T02:30:06.113Z,97312.00
2019-05-09T02:32:35.339Z,97308.00
2019-05-09T02:35:06.078Z,97311.00
2019-05-09T02:37:33.135Z,97310.00
2019-05-09T02:40:00.220Z,97315.00
2019-05-09T02:42:28.092Z,97309.00
2019-05-09T02:44:55.495Z,97307.00
2019-05-09T02:47:24.332Z,97316.00
2019-05-09T02:49:51.557Z,97317.00
2019-05-09T02:52:19.748Z,97316.00
2019-05-09T02:54:50.021Z,97318.00
2019-05-09T02:57:18.483Z,97313.00
2019-05-09T02:59:49.284Z,97315.00
2019-05-09T03:02:23.708Z,97312.00
2019-05-09T03:04:52.031Z,97325.00
2019-05-09T03:07:20.881Z,97320.00
2019-05-09T03:09:48.256Z,97335.00
2019-05-09T03:12:26.012Z,97332.00
2019-05-09T03:14:44.412Z,97331.00
2019-05-09T03:17:13.296Z,97338.00
2019-05-09T03:19:40.365Z,97347.00
2019-05-09T03:22:09.263Z,97345.00
2019-05-09T03:24:39.180Z,97334.00
2019-05-09T03:27:12.908Z,97331.00
2019-05-09T03:29:44.607Z,97341.00
2019-05-09T03:32:11.697Z,97347.00
2019-05-09T03:34:38.775Z,97344.00
2019-05-09T03:37:08.330Z,97337.00
2019-05-09T03:39:34.847Z,97354.00
2019-05-09T03:42:03.722Z,97359.00
2019-05-09T03:44:30.772Z,97358.00
2019-05-09T03:47:17.370Z,97360.00
2019-05-09T03:49:47.648Z,97357.00
2019-05-09T03:52:14.882Z,97363.00
2019-05-09T03:55:00.137Z,97360.00
2019-05-09T03:57:29.061Z,97357.00
2019-05-09T03:59:57.266Z,97361.00
2019-05-09T04:02:24.547Z,97365.00
2019-05-09T04:04:51.791Z,97367.00
2019-05-09T04:07:18.904Z,97377.00
2019-05-09T04:09:47.956Z,97370.00
2019-05-09T04:12:18.147Z,97376.00
2019-05-09T04:14:47.560Z,97387.00
2019-05-09T04:17:14.843Z,97377.00
2019-05-09T04:19:41.916Z,97377.00
2019-05-09T04:22:11.286Z,97381.00
2019-05-09T04:24:41.071Z,97385.00
2019-05-09T04:27:12.489Z,97379.00
2019-05-09T04:29:39.574Z,97386.00
2019-05-09T04:32:07.954Z,97385.00
2019-05-09T04:34:35.302Z,97382.00
2019-05-09T04:37:02.353Z,97389.00
2019-05-09T04:39:30.097Z,97383.00
2019-05-09T04:42:03.488Z,97386.00
2019-05-09T04:44:30.996Z,97378.00
2019-05-09T04:47:00.133Z,97380.00
2019-05-09T04:49:29.634Z,97383.00
2019-05-09T04:51:58.274Z,97383.00
2019-05-09T04:54:25.449Z,97392.00
2019-05-09T04:56:53.924Z,97386.00
2019-05-09T04:59:21.121Z,97395.00
2019-05-09T05:01:50.052Z,97391.00
2019-05-09T05:04:18.357Z,97403.00
2019-05-09T05:06:47.609Z,97409.00
2019-05-09T05:09:14.438Z,97403.00
2019-05-09T05:11:41.676Z,97410.00
2019-05-09T05:14:10.562Z,97398.00
2019-05-09T05:16:39.335Z,97416.00
2019-05-09T05:19:07.546Z,97416.00
2019-05-09T05:21:34.749Z,97416.00
2019-05-09T05:24:09.460Z,97425.00
2019-05-09T05:26:38.083Z,97421.00
2019-05-09T05:29:05.295Z,97415.00
2019-05-09T05:31:32.325Z,97407.00
2019-05-09T05:34:04.598Z,97413.00
2019-05-09T05:36:31.740Z,97410.00
2019-05-09T05:38:58.836Z,97417.00
2019-05-09T05:41:28.317Z,97416.00
2019-05-09T05:43:55.168Z,97410.00
2019-05-09T05:46:24.019Z,97408.00
2019-05-09T05:48:52.289Z,97414.00
2019-05-09T05:51:19.439Z,97416.00
2019-05-09T05:53:48.110Z,97424.00
2019-05-09T05:56:17.529Z,97426.00
2019-05-09T05:58:44.429Z,97427.00
2019-05-09T06:01:11.552Z,97435.00
2019-05-09T06:03:40.433Z,97421.00
2019-05-09T06:06:08.798Z,97426.00
2019-05-09T06:08:38.072Z,97418.00
2019-05-09T06:11:09.478Z,97422.00
2019-05-09T06:13:34.476Z,97432.00
2019-05-09T06:16:01.549Z,97429.00
2019-05-09T06:18:28.858Z,97430.00
2019-05-09T06:20:58.158Z,97430.00
2019-05-09T06:23:24.919Z,97429.00
2019-05-09T06:25:51.994Z,97419.00
2019-05-09T06:28:19.084Z,97428.00
2019-05-09T06:30:47.699Z,97436.00
2019-05-09T06:33:14.984Z,97430.00
2019-05-09T06:35:42.534Z,97433.00
2019-05-09T06:38:09.700Z,97429.00
2019-05-09T06:40:38.305Z,97445.00
2019-05-09T06:43:19.383Z,97438.00
2019-05-09T06:46:04.803Z,97443.00
2019-05-09T06:48:32.108Z,97444.00
2019-05-09T06:50:59.189Z,97436.00
2019-05-09T06:53:27.238Z,97443.00
2019-05-09T06:55:54.858Z,97435.00
2019-05-09T06:58:31.937Z,97434.00
2019-05-09T07:01:13.118Z,97425.00
2019-05-09T07:03:48.190Z,97423.00
2019-05-09T07:06:23.082Z,97425.00
2019-05-09T07:08:54.699Z,97423.00
2019-05-09T07:11:27.421Z,97428.00
2019-05-09T07:13:54.158Z,97425.00
2019-05-09T07:16:21.251Z,97429.00
2019-05-09T07:18:48.596Z,97442.00
2019-05-09T07:21:15.687Z,97433.00
2019-05-09T07:23:42.782Z,97443.00
2019-05-09T07:26:14.427Z,97446.00
2019-05-09T07:28:42.290Z,97448.00
2019-05-09T07:31:11.767Z,97436.00
2019-05-09T07:33:47.847Z,97434.00
2019-05-09T07:36:15.187Z,97421.00
2019-05-09T07:38:42.256Z,97400.00
2019-05-09T07:41:09.776Z,97387.00
2019-05-09T07:43:38.471Z,97381.00
2019-05-09T07:46:08.886Z,97389.00
2019-05-09T07:51:11.972Z,97391.00
2019-05-09T07:53:39.106Z,97407.00
2019-05-09T07:56:07.920Z,97418.00
2019-05-09T07:58:37.525Z,97423.00
2019-05-09T08:01:04.345Z,97430.00
2019-05-09T08:03:31.432Z,97423.00
2019-05-09T08:05:58.507Z,97425.00
2019-05-09T08:08:27.825Z,97431.00
2019-05-09T08:10:54.560Z,97438.00
2019-05-09T08:13:22.290Z,97431.00
2019-05-09T08:15:49.356Z,97434.00
2019-05-09T08:18:17.462Z,97428.00
2019-05-09T08:20:44.876Z,97426.00
2019-05-09T08:23:11.926Z,97413.00
2019-05-09T08:25:39.283Z,97427.00
2019-05-09T08:28:08.797Z,97426.00
2019-05-09T08:30:36.419Z,97425.00
2019-05-09T08:33:08.224Z,97429.00
2019-05-09T08:35:38.114Z,97434.00
2019-05-09T08:38:04.656Z,97429.00
2019-05-09T08:40:31.766Z,97431.00
2019-05-09T08:42:59.205Z,97422.00
2019-05-09T08:45:30.812Z,97414.00
2019-05-09T08:47:57.826Z,97412.00
2019-05-09T08:50:42.087Z,97414.00
2019-05-09T08:53:09.205Z,97423.00
2019-05-09T08:55:38.345Z,97408.00
2019-05-09T08:58:07.785Z,97415.00
2019-05-09T09:00:34.650Z,97409.00
2019-05-09T09:03:01.689Z,97394.00
2019-05-09T09:05:29.020Z,97403.00
2019-05-09T09:07:57.786Z,97406.00
2019-05-09T09:10:25.151Z,97399.00
2019-05-09T09:12:52.189Z,97389.00
2019-05-09T09:15:19.281Z,97388.00
2019-05-09T09:17:48.880Z,97382.00
2019-05-09T09:20:17.989Z,97382.00
2019-05-09T09:22:44.455Z,97382.00
2019-05-09T09:25:11.535Z,97369.00
2019-05-09T09:27:38.597Z,97375.00
2019-05-09T09:30:17.858Z,97376.00
2019-05-09T09:32:35.103Z,97365.00
2019-05-09T09:35:03.286Z,97364.00
2019-05-09T09:37:45.046Z,97362.00
2019-05-09T09:40:00.889Z,97364.00
2019-05-09T09:42:28.330Z,97366.00
2019-05-09T09:44:58.320Z,97363.00
2019-05-09T09:47:24.963Z,97360.00
2019-05-09T09:49:55.199Z,97362.00
2019-05-09T09:52:21.081Z,97352.00
2019-05-09T09:54:48.335Z,97361.00
2019-05-09T09:57:18.976Z,97362.00
2019-05-09T09:59:48.397Z,97360.00
2019-05-09T10:02:18.198Z,97352.00
2019-05-09T10:04:48.034Z,97360.00
2019-05-09T10:07:15.120Z,97352.00
2019-05-09T10:09:42.540Z,97352.00
2019-05-09T10:12:09.801Z,97359.00
2019-05-09T10:14:41.586Z,97357.00
2019-05-09T10:17:10.576Z,97358.00
2019-05-09T10:19:48.305Z,97354.00
2019-05-09T10:22:23.325Z,97357.00
2019-05-09T10:24:47.864Z,97361.00
2019-05-09T10:27:18.481Z,97354.00
2019-05-09T10:29:47.961Z,97351.00
2019-05-09T10:32:18.146Z,97357.00
2019-05-09T10:34:45.100Z,97356.00
2019-05-09T10:37:12.244Z,97357.00
2019-05-09T10:39:39.526Z,97357.00
2019-05-09T10:42:20.597Z,97348.00
2019-05-09T10:44:49.596Z,97340.00
2019-05-09T10:47:24.011Z,97346.00
2019-05-09T10:49:51.086Z,97340.00
2019-05-09T10:52:18.433Z,97344.00
2019-05-09T10:54:45.583Z,97337.00
2019-05-09T10:57:12.799Z,97341.00
2019-05-09T10:59:40.161Z,97340.00
2019-05-09T11:02:09.510Z,97336.00
2019-05-09T11:04:37.968Z,97336.00
2019-05-09T11:07:07.867Z,97336.00
2019-05-09T11:09:34.529Z,97341.00
2019-05-09T11:12:01.567Z,97338.00
2019-05-09T11:14:36.510Z,97342.00
2019-05-09T11:17:07.920Z,97340.00
2019-05-09T11:19:28.947Z,97333.00
2019-05-09T11:21:58.495Z,97332.00
2019-05-09T11:24:42.979Z,97333.00
2019-05-09T11:26:59.889Z,97330.00
2019-05-09T11:29:28.126Z,97329.00
2019-05-09T11:31:55.463Z,97321.00
2019-05-09T11:34:22.565Z,97323.00
2019-05-09T11:36:50.065Z,97314.00
2019-05-09T11:39:35.209Z,97311.00
2019-05-09T11:41:48.823Z,97316.00
2019-05-09T11:44:18.291Z,97300.00
2019-05-09T11:46:44.819Z,97306.00
2019-05-09T11:49:12.089Z,97304.00
2019-05-09T11:51:39.194Z,97303.00
2019-05-09T11:54:08.895Z,97307.00
2019-05-09T11:59:02.906Z,97299.00
2019-05-09T12:01:29.988Z,97294.00
2019-05-09T12:03:57.754Z,97300.00
2019-05-09T12:06:25.369Z,97296.00
2019-05-09T12:08:52.449Z,97298.00
2019-05-09T12:11:19.535Z,97293.00
2019-05-09T12:13:48.606Z,97304.00
2019-05-09T12:16:18.115Z,97307.00
2019-05-09T12:18:44.664Z,97302.00
2019-05-09T12:21:19.096Z,97298.00
2019-05-09T12:23:48.801Z,97298.00
2019-05-09T12:26:18.046Z,97303.00
2019-05-09T12:28:44.795Z,97294.00
2019-05-09T12:31:11.899Z,97295.00
2019-05-09T12:33:39.169Z,97290.00
2019-05-09T12:36:09.280Z,97298.00
2019-05-09T12:38:38.798Z,97299.00
2019-05-09T12:41:07.712Z,97285.00
2019-05-09T12:43:34.015Z,97287.00
2019-05-09T12:46:01.091Z,97288.00
2019-05-09T12:48:28.185Z,97282.00
2019-05-09T12:50:55.343Z,97273.00
2019-05-09T12:53:22.379Z,97271.00
2019-05-09T12:55:59.180Z,97273.00
2019-05-09T12:58:28.075Z,97262.00
2019-05-09T13:00:58.596Z,97267.00
2019-05-09T13:03:27.820Z,97262.00
2019-05-09T13:05:57.337Z,97254.00
2019-05-09T13:08:24.385Z,97248.00
2019-05-09T13:10:51.530Z,97245.00
2019-05-09T13:13:19.751Z,97239.00
2019-05-09T13:15:49.054Z,97242.00
2019-05-09T13:18:24.541Z,97246.00
2019-05-09T13:20:45.125Z,97255.00
2019-05-09T13:23:12.237Z,97245.00
2019-05-09T13:25:39.340Z,97239.00
2019-05-09T13:28:08.274Z,97236.00
2019-05-09T13:30:37.961Z,97240.00
2019-05-09T13:33:10.104Z,97238.00
2019-05-09T13:35:34.780Z,97241.00
2019-05-09T13:38:01.939Z,97227.00
2019-05-09T13:40:29.210Z,97229.00
2019-05-09T13:42:58.537Z,97232.00
2019-05-09T13:45:25.369Z,97229.00
2019-05-09T13:47:52.512Z,97217.00
2019-05-09T13:50:19.585Z,97229.00
2019-05-09T13:52:49.173Z,97233.00
2019-05-09T13:55:17.796Z,97231.00
2019-05-09T13:57:45.123Z,97229.00
2019-05-09T14:00:12.585Z,97227.00
2019-05-09T14:02:39.658Z,97233.00
2019-05-09T14:05:08.994Z,97227.00
2019-05-09T14:07:37.713Z,97217.00
2019-05-09T14:10:09.036Z,97218.00
2019-05-09T14:12:37.972Z,97228.00
2019-05-09T14:15:08.441Z,97232.00
2019-05-09T14:17:46.002Z,97235.00
2019-05-09T14:20:08.721Z,97234.00
2019-05-09T14:22:34.997Z,97236.00
2019-05-09T14:25:02.939Z,97236.00
2019-05-09T14:27:30.407Z,97232.00
2019-05-09T14:29:59.365Z,97228.00
2019-05-09T14:32:26.873Z,97220.00
2019-05-09T14:34:54.063Z,97217.00
2019-05-09T14:37:21.311Z,97220.00
2019-05-09T14:39:58.026Z,97222.00
2019-05-09T14:42:19.065Z,97230.00
2019-05-09T14:44:47.976Z,97223.00
2019-05-09T14:47:17.452Z,97226.00
2019-05-09T14:49:44.749Z,97218.00
2019-05-09T14:52:12.661Z,97226.00
2019-05-09T14:54:39.736Z,97232.00
2019-05-09T14:57:09.461Z,97240.00
2019-05-09T14:59:38.209Z,97228.00
2019-05-09T15:02:05.228Z,97229.00
2019-05-09T15:04:32.903Z,97234.00
2019-05-09T15:06:59.964Z,97231.00
2019-05-09T15:09:28.462Z,97227.00
2019-05-09T15:11:58.264Z,97221.00
2019-05-09T15:14:24.682Z,97219.00
2019-05-09T15:16:54.287Z,97217.00
2019-05-09T15:19:21.361Z,97229.00
2019-05-09T15:21:48.992Z,97227.00
2019-05-09T15:24:19.606Z,97235.00
2019-05-09T15:26:47.943Z,97243.00
2019-05-09T15:29:15.850Z,97260.00
2019-05-09T15:31:44.798Z,97261.00
2019-05-09T15:34:12.313Z,97277.00
2019-05-09T16:07:20.546Z,97306.00
2019-05-09T16:09:48.288Z,97309.00
2019-05-09T16:12:15.481Z,97315.00
2019-05-09T16:14:42.535Z,97311.00
2019-05-09T16:17:09.602Z,97306.00
2019-05-09T16:19:37.809Z,97297.00
2019-05-09T16:22:05.086Z,97294.00
2019-05-09T16:24:32.126Z,97284.00
2019-05-09T16:26:59.685Z,97271.00
2019-05-09T16:29:28.514Z,97266.00
2019-05-09T16:31:57.908Z,97276.00
2019-05-09T16:34:28.203Z,97276.00
2019-05-09T16:36:55.130Z,97276.00
2019-05-09T16:39:22.221Z,97275.00
2019-05-09T16:41:49.875Z,97268.00
2019-05-09T16:44:18.283Z,97276.00
2019-05-09T16:46:48.175Z,97272.00
2019-05-09T16:49:17.591Z,97274.00
2019-05-09T16:51:43.972Z,97270.00
2019-05-09T16:54:11.029Z,97279.00
2019-05-09T16:56:38.400Z,97271.00
2019-05-09T16:59:08.077Z,97275.00
2019-05-09T17:01:39.455Z,97282.00
2019-05-09T17:04:08.189Z,97275.00
2019-05-09T17:06:37.902Z,97276.00
2019-05-09T17:09:04.847Z,97280.00
2019-05-09T17:11:31.913Z,97286.00
2019-05-09T17:13:59.019Z,97282.00
2019-05-09T17:16:28.280Z,97291.00
2019-05-09T17:18:55.068Z,97292.00
2019-05-09T17:21:38.999Z,97296.00
2019-05-09T17:24:14.113Z,97292.00
2019-05-09T17:26:41.661Z,97297.00
2019-05-09T17:29:08.723Z,97303.00
2019-05-09T17:31:38.295Z,97312.00
2019-05-09T17:34:05.343Z,97323.00
2019-05-09T17:36:32.424Z,97321.00
2019-05-09T17:38:59.503Z,97324.00
2019-05-09T17:41:28.426Z,97328.00
2019-05-09T17:43:58.108Z,97329.00
2019-05-09T17:46:27.389Z,97332.00
2019-05-09T17:48:54.344Z,97334.00
2019-05-09T17:51:32.570Z,97344.00
2019-05-09T17:53:52.277Z,97341.00
2019-05-09T17:56:19.488Z,97355.00
2019-05-09T17:58:48.602Z,97361.00
2019-05-09T18:01:18.036Z,97367.00
2019-05-09T18:03:48.049Z,97365.00
2019-05-09T18:06:14.889Z,97380.00
2019-05-09T18:08:42.121Z,97392.00
2019-05-09T18:11:12.743Z,97388.00
2019-05-09T18:13:38.685Z,97389.00
2019-05-09T18:16:06.008Z,97408.00
2019-05-09T18:18:34.323Z,97432.00
2019-05-09T18:21:01.383Z,97433.00
2019-05-09T18:23:29.758Z,97432.00
2019-05-09T18:25:58.536Z,97435.00
2019-05-09T18:28:25.904Z,97446.00
2019-05-09T18:30:52.946Z,97459.00
2019-05-09T18:33:23.240Z,97456.00
2019-05-09T18:35:50.334Z,97464.00
2019-05-09T18:38:29.361Z,97467.00
2019-05-09T18:40:57.949Z,97473.00
2019-05-09T18:43:27.497Z,97481.00
2019-05-09T18:45:54.372Z,97478.00
2019-05-09T18:48:21.428Z,97482.00
2019-05-09T18:50:48.706Z,97474.00
2019-05-09T18:53:15.761Z,97469.00
2019-05-09T18:55:42.818Z,97462.00
2019-05-09T18:58:10.980Z,97455.00
2019-05-09T19:00:38.342Z,97446.00
2019-05-09T19:03:05.395Z,97445.00
2019-05-09T19:05:32.463Z,97452.00
2019-05-09T19:07:59.485Z,97450.00
2019-05-09T19:10:27.162Z,97453.00
2019-05-09T19:12:54.641Z,97455.00
2019-05-09T19:18:11.829Z,97482.00
2019-05-09T19:20:52.883Z,97479.00
2019-05-09T19:23:20.059Z,97486.00
2019-05-09T19:25:47.136Z,97492.00
2019-05-09T19:28:14.300Z,97512.00
2019-05-09T19:30:41.414Z,97511.00
2019-05-09T19:33:08.644Z,97532.00
2019-05-09T19:35:37.162Z,97535.00
2019-05-09T19:38:04.381Z,97538.00
2019-05-09T19:40:32.515Z,97533.00
2019-05-09T19:42:59.705Z,97522.00
2019-05-09T19:45:40.345Z,97529.00
2019-05-09T19:48:07.505Z,97534.00
2019-05-09T19:50:34.766Z,97536.00
2019-05-09T19:53:02.022Z,97532.00
2019-05-09T19:55:29.161Z,97525.00
2019-05-09T19:57:57.362Z,97518.00
2019-05-09T20:00:24.692Z,97505.00
2019-05-09T20:02:52.924Z,97505.00
2019-05-09T20:05:20.324Z,97509.00
2019-05-09T20:07:47.471Z,97539.00
2019-05-09T20:10:16.892Z,97571.00
2019-05-09T20:13:03.598Z,97572.00
2019-05-09T20:15:30.725Z,97556.00
2019-05-09T20:17:57.875Z,97547.00
2019-05-09T20:20:26.173Z,97553.00
2019-05-09T20:22:53.593Z,97549.00
2019-05-09T20:25:22.192Z,97557.00
2019-05-09T20:27:49.336Z,97562.00
2019-05-09T20:30:16.595Z,97553.00
2019-05-09T20:32:43.776Z,97551.00
2019-05-09T20:35:10.918Z,97564.00
2019-05-09T20:37:37.936Z,97573.00
2019-05-09T20:40:07.227Z,97577.00
2019-05-09T20:42:34.293Z,97579.00
2019-05-09T20:45:01.532Z,97574.00
2019-05-09T20:47:28.607Z,97573.00
2019-05-09T20:49:55.695Z,97576.00
2019-05-09T20:52:22.876Z,97573.00
2019-05-09T20:54:50.127Z,97579.00
2019-05-09T20:57:17.272Z,97592.00
2019-05-09T21:02:19.866Z,97603.00
2019-05-09T21:04:47.011Z,97597.00
2019-05-09T21:07:14.156Z,97604.00
2019-05-09T21:09:41.267Z,97602.00
2019-05-09T21:12:11.077Z,97605.00
2019-05-09T21:14:37.553Z,97609.00
2019-05-09T21:17:04.707Z,97603.00
2019-05-09T21:19:31.889Z,97598.00
2019-05-09T21:21:59.413Z,97593.00
2019-05-09T21:24:26.558Z,97613.00
2019-05-09T21:26:53.715Z,97615.00
2019-05-09T21:29:21.053Z,97621.00
2019-05-09T21:31:48.082Z,97614.00
2019-05-09T21:34:15.443Z,97597.00
2019-05-09T21:36:43.643Z,97597.00
2019-05-09T21:39:10.715Z,97603.00
2019-05-09T21:41:37.754Z,97598.00
2019-05-09T21:44:04.828Z,97596.00
2019-05-09T21:46:31.887Z,97609.00
2019-05-09T21:48:58.980Z,97612.00
2019-05-09T21:51:26.057Z,97605.00
2019-05-09T21:53:53.123Z,97600.00
2019-05-09T21:56:20.412Z,97610.00
2019-05-09T21:58:47.503Z,97611.00
2019-05-09T22:01:17.895Z,97616.00
2019-05-09T22:03:46.335Z,97621.00
2019-05-09T22:06:13.745Z,97618.00
2019-05-09T22:08:40.816Z,97612.00
2019-05-09T22:11:07.896Z,97617.00
2019-05-09T22:13:36.861Z,97609.00
2019-05-09T22:16:06.105Z,97615.00
2019-05-09T22:18:34.333Z,97615.00
2019-05-09T22:21:01.626Z,97626.00
2019-05-09T22:23:28.776Z,97627.00
2019-05-09T22:25:55.935Z,97625.00
2019-05-09T22:28:23.282Z,97615.00
2019-05-09T22:30:50.368Z,97633.00
2019-05-09T22:33:17.570Z,97635.00
2019-05-09T22:35:44.725Z,97625.00
2019-05-09T22:38:11.876Z,97643.00
2019-05-09T22:40:38.988Z,97634.00
2019-05-09T22:43:06.065Z,97631.00
2019-05-09T22:45:33.424Z,97636.00
2019-05-09T22:48:00.576Z,97640.00
2019-05-09T22:50:27.985Z,97636.00
2019-05-09T22:52:55.170Z,97641.00
2019-05-09T22:55:22.250Z,97635.00
2019-05-09T22:57:49.480Z,97629.00
2019-05-09T23:00:16.923Z,97633.00
2019-05-09T23:02:44.079Z,97628.00
2019-05-09T23:05:11.553Z,97633.00
2019-05-09T23:10:06.223Z,97640.00
2019-05-09T23:12:33.393Z,97645.00
2019-05-09T23:15:00.637Z,97639.00
2019-05-09T23:17:28.303Z,97642.00
2019-05-09T23:19:55.554Z,97634.00
2019-05-09T23:22:24.641Z,97643.00
2019-05-09T23:24:51.792Z,97637.00
2019-05-09T23:27:19.796Z,97642.00
2019-05-09T23:29:46.902Z,97651.00
2019-05-09T23:32:18.685Z,97651.00
2019-05-09T23:34:45.813Z,97655.00
2019-05-09T23:37:12.962Z,97644.00
2019-05-09T23:39:44.761Z,97643.00
2019-05-09T23:42:12.071Z,97646.00
2019-05-09T23:44:39.130Z,97646.00
2019-05-09T23:47:06.364Z,97645.00
2019-05-09T23:49:33.524Z,97639.00
2019-05-09T23:52:00.665Z,97643.00
2019-05-09T23:54:48.712Z,97645.00
2019-05-09T23:57:34.287Z,97640.00
